createdAt,value
2023-04-29T00:00:33.031Z,11.06
2023-04-29T00:01:32.975Z,10.99
2023-04-29T00:02:33.026Z,10.99
2023-04-29T00:03:33.381Z,11.03
2023-04-29T00:04:33.154Z,11.03
2023-04-29T00:05:32.986Z,10.97
2023-04-29T00:06:32.936Z,11.04
2023-04-29T00:07:32.874Z,10.99
2023-04-29T00:08:32.862Z,10.96
2023-04-29T00:09:32.841Z,11.00
2023-04-29T00:10:32.825Z,11.02
2023-04-29T00:11:32.855Z,10.94
2023-04-29T00:12:32.795Z,10.99
2023-04-29T00:13:32.793Z,10.91
2023-04-29T00:14:32.784Z,10.92
2023-04-29T00:15:32.771Z,11.02
2023-04-29T00:16:32.777Z,10.97
2023-04-29T00:17:32.841Z,10.96
2023-04-29T00:18:32.706Z,11.02
2023-04-29T00:19:32.688Z,10.89
2023-04-29T00:20:32.671Z,10.86
2023-04-29T00:21:32.710Z,11.00
2023-04-29T00:22:32.641Z,11.02
2023-04-29T00:23:32.620Z,10.91
2023-04-29T00:24:32.610Z,10.97
2023-04-29T00:25:32.602Z,11.02
2023-04-29T00:26:32.572Z,10.99
2023-04-29T00:27:32.562Z,10.99
2023-04-29T00:28:32.598Z,10.97
2023-04-29T00:29:32.545Z,10.92
2023-04-29T00:30:32.514Z,10.89
2023-04-29T00:31:32.559Z,10.94
2023-04-29T00:32:32.524Z,11.00
2023-04-29T00:33:32.465Z,10.91
2023-04-29T00:34:32.460Z,10.96
2023-04-29T00:35:32.441Z,10.89
2023-04-29T00:36:32.434Z,10.92
2023-04-29T00:37:32.407Z,10.86
2023-04-29T00:38:32.387Z,10.86
2023-04-29T00:39:32.439Z,10.84
2023-04-29T00:40:32.358Z,10.88
2023-04-29T00:41:32.337Z,10.84
2023-04-29T00:42:32.352Z,10.89
2023-04-29T00:43:32.330Z,10.84
2023-04-29T00:44:32.294Z,10.81
2023-04-29T00:45:32.301Z,10.81
2023-04-29T00:46:32.311Z,10.84
2023-04-29T00:47:32.251Z,10.84
2023-04-29T00:48:32.231Z,10.78
2023-04-29T00:49:32.214Z,10.71
2023-04-29T00:50:32.231Z,10.74
2023-04-29T00:51:32.187Z,10.74
2023-04-29T00:52:32.167Z,10.82
2023-04-29T00:53:32.152Z,10.79
2023-04-29T00:54:32.131Z,10.78
2023-04-29T00:55:32.185Z,10.67
2023-04-29T00:56:32.099Z,10.78
2023-04-29T00:57:32.083Z,10.71
2023-04-29T00:58:32.091Z,10.67
2023-04-29T00:59:32.068Z,10.70
2023-04-29T01:00:32.034Z,10.68
2023-04-29T01:01:32.058Z,10.71
2023-04-29T01:02:32.159Z,10.67
2023-04-29T01:03:32.175Z,10.64
2023-04-29T01:04:32.019Z,10.67
2023-04-29T01:05:31.958Z,10.66
2023-04-29T01:06:32.044Z,10.73
2023-04-29T01:07:31.954Z,10.66
2023-04-29T01:08:31.911Z,10.66
2023-04-29T01:09:31.909Z,10.61
2023-04-29T01:10:31.884Z,10.56
2023-04-29T01:11:31.862Z,10.64
2023-04-29T01:12:31.875Z,10.64
2023-04-29T01:13:31.828Z,10.63
2023-04-29T01:14:31.829Z,10.60
2023-04-29T01:15:31.805Z,10.56
2023-04-29T01:16:31.823Z,10.52
2023-04-29T01:17:31.852Z,10.55
2023-04-29T01:18:31.756Z,10.63
2023-04-29T01:19:31.758Z,10.52
2023-04-29T01:20:31.719Z,10.55
2023-04-29T01:21:31.706Z,10.48
2023-04-29T01:22:31.702Z,10.48
2023-04-29T01:23:31.705Z,10.59
2023-04-29T01:24:31.692Z,10.55
2023-04-29T01:25:31.646Z,10.53
2023-04-29T01:26:31.621Z,10.47
2023-04-29T01:27:31.608Z,10.45
2023-04-29T01:28:31.608Z,10.56
2023-04-29T01:29:31.593Z,10.52
2023-04-29T01:30:31.571Z,10.55
2023-04-29T01:31:31.569Z,10.51
2023-04-29T01:32:34.004Z,10.48
2023-04-29T01:33:31.512Z,10.52
2023-04-29T01:34:31.506Z,10.53
2023-04-29T01:35:31.516Z,10.47
2023-04-29T01:36:31.475Z,10.45
2023-04-29T01:37:31.447Z,10.42
2023-04-29T01:38:31.446Z,10.34
2023-04-29T01:39:31.418Z,10.44
2023-04-29T01:40:31.404Z,10.36
2023-04-29T01:41:31.383Z,10.33
2023-04-29T01:42:31.368Z,10.34
2023-04-29T01:43:31.360Z,10.34
2023-04-29T01:44:31.339Z,10.36
2023-04-29T01:45:31.323Z,10.30
2023-04-29T01:46:31.373Z,10.34
2023-04-29T01:47:31.320Z,10.30
2023-04-29T01:48:31.278Z,10.26
2023-04-29T01:49:31.256Z,10.20
2023-04-29T01:50:31.251Z,10.26
2023-04-29T01:51:31.283Z,10.30
2023-04-29T01:52:31.215Z,10.26
2023-04-29T01:53:31.197Z,10.29
2023-04-29T01:54:31.181Z,10.25
2023-04-29T01:55:31.165Z,10.26
2023-04-29T01:56:31.144Z,10.25
2023-04-29T01:57:31.159Z,10.20
2023-04-29T01:58:31.176Z,10.14
2023-04-29T01:59:31.821Z,10.18
2023-04-29T02:00:31.145Z,10.17
2023-04-29T02:01:31.064Z,10.11
2023-04-29T02:02:31.130Z,10.15
2023-04-29T02:03:31.114Z,10.18
2023-04-29T02:04:31.071Z,10.05
2023-04-29T02:05:31.031Z,10.17
2023-04-29T02:06:30.983Z,10.12
2023-04-29T02:07:30.968Z,10.12
2023-04-29T02:08:30.954Z,10.12
2023-04-29T02:09:30.953Z,10.15
2023-04-29T02:10:30.924Z,10.20
2023-04-29T02:11:30.903Z,10.17
2023-04-29T02:12:30.904Z,10.17
2023-04-29T02:13:30.874Z,10.05
2023-04-29T02:14:30.927Z,10.07
2023-04-29T02:15:30.840Z,10.09
2023-04-29T02:16:30.913Z,10.08
2023-04-29T02:17:30.829Z,10.15
2023-04-29T02:18:30.792Z,10.07
2023-04-29T02:19:30.778Z,10.11
2023-04-29T02:20:30.791Z,10.07
2023-04-29T02:21:30.747Z,10.20
2023-04-29T02:22:30.731Z,10.12
2023-04-29T02:23:30.712Z,10.08
2023-04-29T02:24:30.698Z,10.08
2023-04-29T02:25:30.714Z,10.08
2023-04-29T02:26:30.676Z,10.11
2023-04-29T02:27:30.646Z,10.07
2023-04-29T02:28:30.635Z,10.09
2023-04-29T02:29:30.664Z,10.15
2023-04-29T02:30:30.600Z,10.09
2023-04-29T02:31:30.600Z,10.12
2023-04-29T02:32:30.605Z,10.08
2023-04-29T02:33:30.550Z,10.14
2023-04-29T02:34:30.534Z,10.20
2023-04-29T02:35:30.519Z,10.12
2023-04-29T02:36:30.501Z,10.12
2023-04-29T02:37:30.496Z,10.12
2023-04-29T02:38:30.512Z,10.09
2023-04-29T02:39:30.455Z,10.14
2023-04-29T02:40:30.444Z,10.08
2023-04-29T02:41:30.477Z,10.11
2023-04-29T02:42:30.414Z,10.09
2023-04-29T02:43:30.388Z,10.07
2023-04-29T02:44:30.388Z,10.12
2023-04-29T02:45:30.383Z,10.11
2023-04-29T02:46:30.410Z,10.14
2023-04-29T02:47:30.417Z,10.18
2023-04-29T02:48:30.366Z,10.15
2023-04-29T02:49:30.294Z,10.14
2023-04-29T02:50:30.284Z,10.14
2023-04-29T02:51:30.265Z,10.18
2023-04-29T02:52:30.252Z,10.11
2023-04-29T02:53:30.229Z,10.11
2023-04-29T02:54:30.249Z,10.17
2023-04-29T02:55:30.196Z,10.22
2023-04-29T02:56:30.190Z,10.12
2023-04-29T02:57:30.177Z,10.11
2023-04-29T02:58:30.156Z,10.17
2023-04-29T02:59:30.185Z,10.14
2023-04-29T03:00:30.119Z,10.11
2023-04-29T03:01:30.132Z,9.97
2023-04-29T03:02:30.266Z,9.93
2023-04-29T03:03:30.290Z,10.02
2023-04-29T03:04:30.233Z,9.94
2023-04-29T03:05:30.039Z,9.94
2023-04-29T03:06:30.069Z,9.96
2023-04-29T03:07:30.013Z,9.93
2023-04-29T03:08:29.996Z,9.99
2023-04-29T03:09:29.974Z,9.94
2023-04-29T03:10:30.310Z,9.93
2023-04-29T03:11:29.999Z,9.91
2023-04-29T03:12:29.926Z,9.89
2023-04-29T03:13:29.906Z,9.84
2023-04-29T03:14:29.919Z,9.86
2023-04-29T03:15:29.874Z,9.93
2023-04-29T03:16:29.892Z,9.89
2023-04-29T03:17:29.944Z,9.79
2023-04-29T03:18:29.830Z,9.81
2023-04-29T03:19:29.811Z,9.89
2023-04-29T03:20:29.797Z,9.83
2023-04-29T03:21:29.798Z,9.83
2023-04-29T03:22:29.761Z,9.86
2023-04-29T03:23:29.799Z,9.83
2023-04-29T03:24:29.727Z,9.81
2023-04-29T03:25:29.709Z,9.69
2023-04-29T03:26:29.695Z,9.71
2023-04-29T03:27:29.679Z,9.72
2023-04-29T03:28:29.661Z,9.72
2023-04-29T03:29:29.647Z,9.76
2023-04-29T03:30:29.634Z,9.72
2023-04-29T03:31:29.632Z,9.56
2023-04-29T03:32:29.620Z,9.75
2023-04-29T03:33:29.579Z,9.68
2023-04-29T03:34:29.610Z,9.65
2023-04-29T03:35:29.553Z,9.71
2023-04-29T03:36:29.528Z,9.72
2023-04-29T03:37:29.531Z,9.65
2023-04-29T03:38:29.496Z,9.69
2023-04-29T03:39:29.481Z,9.65
2023-04-29T03:40:29.529Z,9.57
2023-04-29T03:41:29.445Z,9.60
2023-04-29T03:42:29.440Z,9.60
2023-04-29T03:43:29.419Z,9.65
2023-04-29T03:44:29.418Z,9.64
2023-04-29T03:45:29.381Z,9.61
2023-04-29T03:46:29.499Z,9.60
2023-04-29T03:47:29.366Z,9.56
2023-04-29T03:48:29.333Z,9.60
2023-04-29T03:49:29.363Z,9.61
2023-04-29T03:50:29.298Z,9.54
2023-04-29T03:51:29.282Z,9.54
2023-04-29T03:52:29.272Z,9.57
2023-04-29T03:53:29.258Z,9.53
2023-04-29T03:54:29.235Z,9.54
2023-04-29T03:55:29.249Z,9.47
2023-04-29T03:56:29.203Z,9.51
2023-04-29T03:57:29.186Z,9.56
2023-04-29T03:58:29.171Z,9.51
2023-04-29T03:59:29.152Z,9.56
2023-04-29T04:00:29.133Z,9.56
2023-04-29T04:01:29.122Z,9.56
2023-04-29T04:02:29.278Z,9.56
2023-04-29T04:03:29.174Z,9.56
2023-04-29T04:04:29.267Z,9.61
2023-04-29T04:05:29.057Z,9.57
2023-04-29T04:06:29.087Z,9.48
2023-04-29T04:07:29.025Z,9.56
2023-04-29T04:08:29.008Z,9.47
2023-04-29T04:09:28.992Z,9.56
2023-04-29T04:10:28.989Z,9.54
2023-04-29T04:11:28.968Z,9.60
2023-04-29T04:12:28.970Z,9.56
2023-04-29T04:13:28.924Z,9.57
2023-04-29T04:14:28.936Z,9.56
2023-04-29T04:15:28.890Z,9.51
2023-04-29T04:16:28.936Z,9.47
2023-04-29T04:17:28.857Z,9.46
2023-04-29T04:18:28.876Z,9.58
2023-04-29T04:19:28.840Z,9.56
2023-04-29T04:20:28.817Z,9.51
2023-04-29T04:21:28.792Z,9.46
2023-04-29T04:22:28.821Z,9.51
2023-04-29T04:23:28.767Z,9.54
2023-04-29T04:24:28.747Z,9.54
2023-04-29T04:25:28.732Z,9.51
2023-04-29T04:26:28.720Z,9.48
2023-04-29T04:27:28.739Z,9.46
2023-04-29T04:28:28.681Z,9.48
2023-04-29T04:29:28.669Z,9.48
2023-04-29T04:30:28.670Z,9.50
2023-04-29T04:31:28.688Z,9.51
2023-04-29T04:32:28.675Z,9.53
2023-04-29T04:33:28.613Z,9.50
2023-04-29T04:34:28.593Z,9.43
2023-04-29T04:35:28.579Z,9.50
2023-04-29T04:36:28.569Z,9.50
2023-04-29T04:37:28.599Z,9.50
2023-04-29T04:38:28.524Z,9.50
2023-04-29T04:39:28.520Z,9.47
2023-04-29T04:40:28.500Z,9.48
2023-04-29T04:41:28.471Z,9.43
2023-04-29T04:42:28.536Z,9.51
2023-04-29T04:43:28.447Z,9.53
2023-04-29T04:44:28.426Z,9.57
2023-04-29T04:45:28.443Z,9.47
2023-04-29T04:46:28.391Z,9.47
2023-04-29T04:47:28.467Z,9.50
2023-04-29T04:48:28.376Z,9.51
2023-04-29T04:49:28.398Z,9.54
2023-04-29T04:50:28.336Z,9.50
2023-04-29T04:51:28.331Z,9.51
2023-04-29T04:52:28.305Z,9.54
2023-04-29T04:53:28.301Z,9.48
2023-04-29T04:54:28.265Z,9.48
2023-04-29T04:55:28.251Z,9.35
2023-04-29T04:56:28.231Z,9.39
2023-04-29T04:57:28.214Z,9.50
2023-04-29T04:58:28.216Z,9.36
2023-04-29T04:59:28.187Z,9.38
2023-04-29T05:00:28.282Z,9.40
2023-04-29T05:01:28.196Z,9.40
2023-04-29T05:02:28.307Z,9.43
2023-04-29T05:03:28.331Z,9.39
2023-04-29T05:04:28.433Z,9.39
2023-04-29T05:05:28.093Z,9.51
2023-04-29T05:06:28.105Z,9.50
2023-04-29T05:07:28.053Z,9.53
2023-04-29T05:08:28.040Z,9.50
2023-04-29T05:09:28.027Z,9.57
2023-04-29T05:10:28.038Z,9.54
2023-04-29T05:11:27.998Z,9.43
2023-04-29T05:12:27.992Z,9.43
2023-04-29T05:13:27.955Z,9.35
2023-04-29T05:14:27.945Z,9.36
2023-04-29T05:15:27.936Z,9.36
2023-04-29T05:16:27.956Z,9.33
2023-04-29T05:17:27.947Z,9.36
2023-04-29T05:18:27.914Z,9.48
2023-04-29T05:19:27.862Z,9.38
2023-04-29T05:20:27.841Z,9.36
2023-04-29T05:21:27.829Z,9.54
2023-04-29T05:22:27.841Z,9.38
2023-04-29T05:23:27.841Z,9.43
2023-04-29T05:24:27.780Z,9.38
2023-04-29T05:25:27.758Z,9.39
2023-04-29T05:26:27.758Z,9.39
2023-04-29T05:27:27.728Z,9.36
2023-04-29T05:28:28.412Z,9.38
2023-04-29T05:29:27.751Z,9.43
2023-04-29T05:30:27.694Z,9.39
2023-04-29T05:31:27.717Z,9.36
2023-04-29T05:32:27.695Z,9.36
2023-04-29T05:33:27.652Z,9.36
2023-04-29T05:34:27.635Z,9.35
2023-04-29T05:35:27.644Z,9.33
2023-04-29T05:36:27.617Z,9.47
2023-04-29T05:37:27.612Z,9.50
2023-04-29T05:38:27.657Z,9.48
2023-04-29T05:39:27.616Z,9.48
2023-04-29T05:40:27.636Z,9.48
2023-04-29T05:41:27.503Z,9.48
2023-04-29T05:42:27.502Z,9.47
2023-04-29T05:43:27.502Z,9.48
2023-04-29T05:44:27.449Z,9.54
2023-04-29T05:45:27.505Z,9.46
2023-04-29T05:46:27.478Z,9.43
2023-04-29T05:47:27.479Z,9.56
2023-04-29T05:48:27.388Z,9.56
2023-04-29T05:49:27.386Z,9.57
2023-04-29T05:50:27.370Z,9.57
2023-04-29T05:51:27.346Z,9.57
2023-04-29T05:52:27.324Z,9.53
2023-04-29T05:53:27.308Z,9.61
2023-04-29T05:54:27.306Z,9.64
2023-04-29T05:55:27.276Z,9.74
2023-04-29T05:56:27.285Z,9.68
2023-04-29T05:57:27.237Z,9.64
2023-04-29T05:58:27.222Z,9.65
2023-04-29T05:59:27.230Z,9.66
2023-04-29T06:00:27.201Z,9.68
2023-04-29T06:01:27.206Z,9.65
2023-04-29T06:02:27.281Z,9.66
2023-04-29T06:03:27.308Z,9.72
2023-04-29T06:04:27.328Z,9.69
2023-04-29T06:05:27.645Z,9.71
2023-04-29T06:06:27.226Z,9.68
2023-04-29T06:07:27.084Z,9.71
2023-04-29T06:08:27.074Z,9.75
2023-04-29T06:09:28.402Z,9.64
2023-04-29T06:10:27.038Z,9.76
2023-04-29T06:11:27.019Z,9.72
2023-04-29T06:12:27.037Z,9.78
2023-04-29T06:13:26.986Z,9.76
2023-04-29T06:14:27.036Z,9.72
2023-04-29T06:15:26.958Z,9.69
2023-04-29T06:16:26.983Z,9.76
2023-04-29T06:17:26.936Z,9.74
2023-04-29T06:18:26.909Z,9.74
2023-04-29T06:19:26.899Z,9.72
2023-04-29T06:20:26.949Z,9.75
2023-04-29T06:21:26.857Z,9.71
2023-04-29T06:22:26.933Z,9.71
2023-04-29T06:23:26.825Z,9.75
2023-04-29T06:24:26.810Z,9.68
2023-04-29T06:25:26.801Z,9.72
2023-04-29T06:26:26.822Z,9.81
2023-04-29T06:27:26.767Z,9.79
2023-04-29T06:28:26.744Z,9.83
2023-04-29T06:29:26.798Z,9.78
2023-04-29T06:30:26.717Z,9.87
2023-04-29T06:31:26.735Z,9.93
2023-04-29T06:32:26.747Z,9.87
2023-04-29T06:33:26.667Z,9.81
2023-04-29T06:34:26.650Z,9.99
2023-04-29T06:35:26.642Z,9.91
2023-04-29T06:36:26.651Z,9.74
2023-04-29T06:37:26.704Z,9.87
2023-04-29T06:38:26.585Z,9.83
2023-04-29T06:39:26.584Z,9.78
2023-04-29T06:40:26.561Z,9.72
2023-04-29T06:41:26.542Z,9.68
2023-04-29T06:42:26.530Z,9.71
2023-04-29T06:43:26.549Z,9.66
2023-04-29T06:44:26.538Z,9.71
2023-04-29T06:45:26.527Z,9.75
2023-04-29T06:46:26.520Z,9.68
2023-04-29T06:47:26.523Z,9.71
2023-04-29T06:48:26.541Z,9.69
2023-04-29T06:49:26.414Z,9.74
2023-04-29T06:50:26.530Z,9.74
2023-04-29T06:51:26.380Z,9.76
2023-04-29T06:52:26.364Z,9.75
2023-04-29T06:53:26.395Z,9.76
2023-04-29T06:54:26.335Z,9.72
2023-04-29T06:55:26.318Z,9.69
2023-04-29T06:56:26.306Z,9.83
2023-04-29T06:57:26.285Z,9.69
2023-04-29T06:58:26.349Z,9.74
2023-04-29T06:59:26.276Z,9.79
2023-04-29T07:00:26.295Z,9.74
2023-04-29T07:01:26.269Z,9.71
2023-04-29T07:02:26.302Z,9.71
2023-04-29T07:03:26.291Z,9.75
2023-04-29T07:04:26.244Z,9.76
2023-04-29T07:05:26.229Z,9.79
2023-04-29T07:06:26.144Z,9.71
2023-04-29T07:07:26.128Z,9.75
2023-04-29T07:08:26.119Z,9.74
2023-04-29T07:09:26.095Z,9.72
2023-04-29T07:10:26.089Z,9.79
2023-04-29T07:11:26.135Z,9.74
2023-04-29T07:12:26.147Z,9.72
2023-04-29T07:13:26.040Z,9.69
2023-04-29T07:14:26.022Z,9.79
2023-04-29T07:15:26.030Z,9.79
2023-04-29T07:16:26.038Z,9.84
2023-04-29T07:17:26.076Z,9.89
2023-04-29T07:18:25.953Z,9.89
2023-04-29T07:19:25.950Z,9.86
2023-04-29T07:20:25.975Z,9.83
2023-04-29T07:21:25.940Z,9.83
2023-04-29T07:22:25.893Z,9.78
2023-04-29T07:23:25.888Z,9.83
2023-04-29T07:24:25.866Z,9.84
2023-04-29T07:25:25.844Z,9.78
2023-04-29T07:26:25.858Z,9.91
2023-04-29T07:27:25.823Z,9.94
2023-04-29T07:28:25.797Z,9.91
2023-04-29T07:29:25.787Z,10.01
2023-04-29T07:30:25.805Z,9.91
2023-04-29T07:31:25.827Z,9.93
2023-04-29T07:32:25.779Z,10.09
2023-04-29T07:33:25.730Z,9.96
2023-04-29T07:34:25.728Z,10.11
2023-04-29T07:35:25.693Z,10.17
2023-04-29T07:36:25.676Z,10.26
2023-04-29T07:37:25.662Z,10.17
2023-04-29T07:38:25.640Z,10.15
2023-04-29T07:39:25.694Z,10.23
2023-04-29T07:40:25.646Z,10.05
2023-04-29T07:41:25.598Z,10.08
2023-04-29T07:42:25.609Z,10.11
2023-04-29T07:43:25.566Z,10.20
2023-04-29T07:44:25.552Z,10.27
2023-04-29T07:45:25.566Z,10.27
2023-04-29T07:46:25.635Z,10.33
2023-04-29T07:47:25.517Z,10.40
2023-04-29T07:48:25.488Z,10.51
2023-04-29T07:49:25.473Z,10.53
2023-04-29T07:50:25.490Z,10.47
2023-04-29T07:51:25.471Z,10.48
2023-04-29T07:52:25.422Z,10.47
2023-04-29T07:53:25.450Z,10.41
2023-04-29T07:54:25.392Z,10.40
2023-04-29T07:55:25.432Z,10.45
2023-04-29T07:56:25.412Z,10.56
2023-04-29T07:57:25.361Z,10.61
2023-04-29T07:58:25.330Z,10.41
2023-04-29T07:59:25.328Z,10.55
2023-04-29T08:00:25.303Z,10.47
2023-04-29T08:01:25.295Z,10.56
2023-04-29T08:02:25.423Z,10.51
2023-04-29T08:03:25.397Z,10.59
2023-04-29T08:04:25.437Z,10.56
2023-04-29T08:05:25.518Z,10.56
2023-04-29T08:06:25.250Z,10.67
2023-04-29T08:07:25.196Z,10.71
2023-04-29T08:08:25.192Z,10.71
2023-04-29T08:09:25.349Z,10.74
2023-04-29T08:10:25.168Z,10.86
2023-04-29T08:11:25.137Z,10.97
2023-04-29T08:12:25.149Z,10.99
2023-04-29T08:13:25.108Z,10.92
2023-04-29T08:14:25.095Z,10.97
2023-04-29T08:15:25.084Z,10.96
2023-04-29T08:16:25.141Z,11.04
2023-04-29T08:17:25.130Z,10.96
2023-04-29T08:18:25.041Z,10.97
2023-04-29T08:19:25.020Z,10.96
2023-04-29T08:20:25.003Z,10.96
2023-04-29T08:21:24.991Z,11.04
2023-04-29T08:22:25.164Z,11.02
2023-04-29T08:23:24.966Z,10.81
2023-04-29T08:24:24.947Z,10.81
2023-04-29T08:25:24.939Z,10.84
2023-04-29T08:26:24.958Z,10.86
2023-04-29T08:27:24.956Z,10.85
2023-04-29T08:28:24.893Z,10.92
2023-04-29T08:29:24.874Z,10.82
2023-04-29T08:30:24.859Z,10.88
2023-04-29T08:31:24.874Z,10.94
2023-04-29T08:32:24.879Z,11.04
2023-04-29T08:33:24.840Z,11.03
2023-04-29T08:34:24.837Z,11.24
2023-04-29T08:35:24.808Z,11.25
2023-04-29T08:36:24.772Z,11.28
2023-04-29T08:37:24.778Z,11.32
2023-04-29T08:38:24.760Z,11.37
2023-04-29T08:39:24.736Z,11.37
2023-04-29T08:40:24.743Z,11.36
2023-04-29T08:41:24.703Z,11.36
2023-04-29T08:42:24.695Z,11.28
2023-04-29T08:43:24.731Z,11.27
2023-04-29T08:44:24.656Z,11.25
2023-04-29T08:45:24.717Z,11.25
2023-04-29T08:46:24.653Z,11.25
2023-04-29T08:47:24.696Z,11.29
2023-04-29T08:48:24.663Z,11.27
2023-04-29T08:49:24.665Z,11.35
2023-04-29T08:50:24.575Z,11.27
2023-04-29T08:51:24.574Z,11.33
2023-04-29T08:52:24.543Z,11.47
2023-04-29T08:53:24.537Z,11.39
2023-04-29T08:54:24.540Z,11.42
2023-04-29T08:55:24.501Z,11.43
2023-04-29T08:56:26.710Z,11.43
2023-04-29T08:57:24.469Z,11.51
2023-04-29T08:58:24.454Z,11.60
2023-04-29T08:59:24.494Z,11.65
2023-04-29T09:00:24.452Z,11.76
2023-04-29T09:01:24.463Z,11.80
2023-04-29T09:02:24.531Z,11.75
2023-04-29T09:03:24.477Z,11.83
2023-04-29T09:04:24.435Z,11.91
2023-04-29T09:05:24.366Z,11.79
2023-04-29T09:06:24.348Z,11.85
2023-04-29T09:07:24.343Z,11.82
2023-04-29T09:08:24.331Z,11.90
2023-04-29T09:09:24.369Z,11.78
2023-04-29T09:10:24.293Z,11.83
2023-04-29T09:11:24.281Z,11.86
2023-04-29T09:12:24.261Z,11.91
2023-04-29T09:13:24.250Z,11.86
2023-04-29T09:14:24.235Z,11.88
2023-04-29T09:15:24.244Z,11.86
2023-04-29T09:16:24.272Z,11.78
2023-04-29T09:17:24.219Z,11.88
2023-04-29T09:18:24.184Z,12.09
2023-04-29T09:19:24.163Z,12.04
2023-04-29T09:20:24.167Z,12.10
2023-04-29T09:21:24.140Z,12.12
2023-04-29T09:22:24.148Z,12.20
2023-04-29T09:23:24.116Z,12.13
2023-04-29T09:24:24.102Z,12.09
2023-04-29T09:25:24.138Z,12.17
2023-04-29T09:26:24.112Z,12.28
2023-04-29T09:27:24.071Z,12.23
2023-04-29T09:28:24.047Z,12.27
2023-04-29T09:29:24.038Z,12.09
2023-04-29T09:30:24.025Z,12.16
2023-04-29T09:31:24.058Z,12.09
2023-04-29T09:32:24.026Z,12.07
2023-04-29T09:33:23.983Z,12.14
2023-04-29T09:34:23.981Z,12.16
2023-04-29T09:35:23.974Z,12.17
2023-04-29T09:36:23.948Z,12.28
2023-04-29T09:37:23.954Z,12.21
2023-04-29T09:38:23.924Z,12.42
2023-04-29T09:39:23.908Z,12.52
2023-04-29T09:40:23.906Z,12.59
2023-04-29T09:41:24.132Z,12.68
2023-04-29T09:42:23.932Z,12.64
2023-04-29T09:43:23.869Z,12.82
2023-04-29T09:44:23.839Z,12.92
2023-04-29T09:45:23.822Z,12.97
2023-04-29T09:46:23.844Z,12.79
2023-04-29T09:47:23.854Z,12.83
2023-04-29T09:48:23.794Z,12.74
2023-04-29T09:49:23.777Z,12.57
2023-04-29T09:50:23.775Z,12.45
2023-04-29T09:51:23.756Z,12.37
2023-04-29T09:52:23.754Z,12.39
2023-04-29T09:53:23.787Z,12.37
2023-04-29T09:54:23.820Z,12.45
2023-04-29T09:55:23.707Z,12.38
2023-04-29T09:56:23.697Z,12.42
2023-04-29T09:57:23.693Z,12.39
2023-04-29T09:58:23.673Z,12.42
2023-04-29T09:59:23.680Z,12.42
2023-04-29T10:00:23.666Z,12.37
2023-04-29T10:01:23.645Z,12.45
2023-04-29T10:02:23.662Z,12.47
2023-04-29T10:03:23.684Z,12.38
2023-04-29T10:04:23.665Z,12.46
2023-04-29T10:05:23.589Z,12.50
2023-04-29T10:06:23.574Z,12.57
2023-04-29T10:07:23.580Z,12.49
2023-04-29T10:08:23.538Z,12.46
2023-04-29T10:09:23.555Z,12.45
2023-04-29T10:10:23.518Z,12.46
2023-04-29T10:11:23.545Z,12.54
2023-04-29T10:12:23.492Z,12.53
2023-04-29T10:13:23.487Z,12.52
2023-04-29T10:14:23.453Z,12.60
2023-04-29T10:15:23.446Z,12.60
2023-04-29T10:16:23.640Z,12.64
2023-04-29T10:17:23.424Z,12.56
2023-04-29T10:18:23.403Z,12.54
2023-04-29T10:19:23.405Z,12.59
2023-04-29T10:20:23.382Z,12.54
2023-04-29T10:21:23.393Z,12.59
2023-04-29T10:22:23.355Z,12.71
2023-04-29T10:23:23.367Z,12.82
2023-04-29T10:24:23.331Z,12.65
2023-04-29T10:25:23.322Z,12.70
2023-04-29T10:26:23.377Z,12.65
2023-04-29T10:27:25.257Z,12.67
2023-04-29T10:28:23.287Z,12.70
2023-04-29T10:29:23.260Z,12.68
2023-04-29T10:30:23.274Z,12.64
2023-04-29T10:31:23.322Z,12.57
2023-04-29T10:32:23.267Z,12.42
2023-04-29T10:33:23.302Z,12.34
2023-04-29T10:34:23.206Z,12.23
2023-04-29T10:35:23.447Z,12.29
2023-04-29T10:36:23.170Z,12.20
2023-04-29T10:37:23.191Z,12.21
2023-04-29T10:38:23.189Z,12.29
2023-04-29T10:39:23.138Z,12.24
2023-04-29T10:40:23.120Z,12.23
2023-04-29T10:41:23.099Z,12.20
2023-04-29T10:42:23.093Z,12.20
2023-04-29T10:43:23.116Z,12.37
2023-04-29T10:44:23.060Z,12.42
2023-04-29T10:45:23.063Z,12.39
2023-04-29T10:46:23.090Z,12.41
2023-04-29T10:47:23.034Z,12.42
2023-04-29T10:48:23.024Z,12.37
2023-04-29T10:49:25.301Z,12.37
2023-04-29T10:50:23.018Z,12.45
2023-04-29T10:51:22.966Z,12.49
2023-04-29T10:52:22.951Z,12.41
2023-04-29T10:53:22.930Z,12.37
2023-04-29T10:54:22.928Z,12.42
2023-04-29T10:55:22.906Z,12.41
2023-04-29T10:56:22.951Z,12.42
2023-04-29T10:57:22.893Z,12.49
2023-04-29T10:58:22.873Z,12.52
2023-04-29T10:59:22.853Z,12.60
2023-04-29T11:00:22.864Z,12.68
2023-04-29T11:01:22.929Z,12.74
2023-04-29T11:02:22.868Z,12.64
2023-04-29T11:03:22.953Z,12.75
2023-04-29T11:04:22.833Z,12.75
2023-04-29T11:05:22.768Z,12.79
2023-04-29T11:06:22.755Z,12.83
2023-04-29T11:07:22.773Z,12.93
2023-04-29T11:08:22.733Z,13.00
2023-04-29T11:09:22.716Z,13.10
2023-04-29T11:10:22.709Z,13.59
2023-04-29T11:11:22.689Z,13.55
2023-04-29T11:12:22.682Z,13.57
2023-04-29T11:13:22.671Z,13.51
2023-04-29T11:14:22.719Z,13.57
2023-04-29T11:15:22.662Z,13.48
2023-04-29T11:16:22.640Z,13.59
2023-04-29T11:17:22.699Z,13.44
2023-04-29T11:18:22.600Z,13.49
2023-04-29T11:19:22.586Z,13.52
2023-04-29T11:20:22.583Z,13.52
2023-04-29T11:21:22.562Z,13.82
2023-04-29T11:22:22.569Z,13.62
2023-04-29T11:23:22.540Z,13.63
2023-04-29T11:24:22.526Z,13.62
2023-04-29T11:25:22.528Z,13.63
2023-04-29T11:26:22.503Z,13.51
2023-04-29T11:27:22.526Z,13.54
2023-04-29T11:28:22.480Z,13.42
2023-04-29T11:29:22.494Z,13.42
2023-04-29T11:30:22.460Z,13.42
2023-04-29T11:31:22.515Z,13.39
2023-04-29T11:32:22.542Z,13.23
2023-04-29T11:33:22.466Z,13.26
2023-04-29T11:34:22.404Z,13.17
2023-04-29T11:35:22.400Z,13.36
2023-04-29T11:36:22.389Z,13.38
2023-04-29T11:37:22.365Z,13.39
2023-04-29T11:38:22.358Z,13.39
2023-04-29T11:39:22.344Z,13.39
2023-04-29T11:40:22.326Z,13.32
2023-04-29T11:41:22.313Z,13.36
2023-04-29T11:42:22.314Z,13.25
2023-04-29T11:43:22.316Z,13.23
2023-04-29T11:44:22.280Z,13.17
2023-04-29T11:45:22.303Z,13.10
2023-04-29T11:46:22.294Z,13.14
2023-04-29T11:47:22.327Z,13.07
2023-04-29T11:48:22.257Z,13.10
2023-04-29T11:49:22.221Z,13.04
2023-04-29T11:50:22.208Z,13.07
2023-04-29T11:51:22.189Z,13.11
2023-04-29T11:52:22.172Z,13.05
2023-04-29T11:53:22.190Z,13.14
2023-04-29T11:54:22.153Z,13.15
2023-04-29T11:55:22.170Z,13.12
2023-04-29T11:56:22.159Z,13.22
2023-04-29T11:57:22.140Z,13.28
2023-04-29T11:58:22.102Z,13.33
2023-04-29T11:59:22.117Z,13.38
2023-04-29T12:00:22.111Z,13.33
2023-04-29T12:01:22.062Z,13.39
2023-04-29T12:02:22.137Z,13.45
2023-04-29T12:03:22.250Z,13.39
2023-04-29T12:04:22.549Z,13.33
2023-04-29T12:05:22.145Z,13.32
2023-04-29T12:06:21.984Z,13.52
2023-04-29T12:07:21.974Z,13.46
2023-04-29T12:08:21.963Z,13.55
2023-04-29T12:09:22.001Z,13.55
2023-04-29T12:10:21.930Z,13.38
2023-04-29T12:11:21.922Z,13.49
2023-04-29T12:12:21.907Z,13.36
2023-04-29T12:13:21.914Z,13.41
2023-04-29T12:14:21.907Z,13.46
2023-04-29T12:15:21.871Z,13.41
2023-04-29T12:16:21.938Z,13.39
2023-04-29T12:17:21.964Z,13.42
2023-04-29T12:18:21.848Z,13.30
2023-04-29T12:19:21.858Z,13.42
2023-04-29T12:20:21.806Z,13.36
2023-04-29T12:21:21.788Z,13.39
2023-04-29T12:22:21.776Z,13.33
2023-04-29T12:23:21.761Z,13.32
2023-04-29T12:24:21.795Z,13.42
2023-04-29T12:25:21.750Z,13.39
2023-04-29T12:26:21.726Z,13.41
2023-04-29T12:27:21.706Z,13.38
2023-04-29T12:28:21.705Z,13.33
2023-04-29T12:29:21.681Z,13.12
2023-04-29T12:30:21.668Z,13.20
2023-04-29T12:31:21.704Z,13.10
2023-04-29T12:32:21.687Z,13.10
2023-04-29T12:33:21.636Z,13.08
2023-04-29T12:34:21.619Z,13.11
2023-04-29T12:35:21.603Z,13.11
2023-04-29T12:36:21.679Z,13.10
2023-04-29T12:37:21.577Z,13.05
2023-04-29T12:38:21.564Z,13.15
2023-04-29T12:39:21.543Z,13.23
2023-04-29T12:40:21.573Z,13.29
2023-04-29T12:41:21.516Z,13.36
2023-04-29T12:42:21.512Z,13.39
2023-04-29T12:43:21.493Z,13.42
2023-04-29T12:44:21.500Z,13.59
2023-04-29T12:45:21.485Z,13.59
2023-04-29T12:46:21.465Z,13.52
2023-04-29T12:47:21.555Z,13.71
2023-04-29T12:48:29.838Z,13.84
2023-04-29T12:49:21.406Z,13.89
2023-04-29T12:50:21.412Z,13.79
2023-04-29T12:51:21.397Z,13.75
2023-04-29T12:52:21.382Z,13.75
2023-04-29T12:53:21.421Z,13.73
2023-04-29T12:54:21.350Z,13.62
2023-04-29T12:55:21.329Z,13.57
2023-04-29T12:56:21.322Z,13.41
2023-04-29T12:57:21.300Z,13.41
2023-04-29T12:58:21.308Z,13.36
2023-04-29T12:59:21.331Z,13.25
2023-04-29T13:00:21.261Z,13.20
2023-04-29T13:01:21.290Z,13.19